createdAt,value
2023-10-21T00:01:02.005Z,9.70
2023-10-21T00:03:05.384Z,10.50
2023-10-21T00:05:08.941Z,9.70
2023-10-21T00:07:11.613Z,9.80
2023-10-21T00:09:14.205Z,9.80
2023-10-21T00:11:17.583Z,9.80
2023-10-21T00:13:23.577Z,10.50
2023-10-21T00:15:26.292Z,10.30
2023-10-21T00:17:29.666Z,10.50
2023-10-21T00:19:32.329Z,10.00
2023-10-21T00:21:35.130Z,9.90
2023-10-21T00:23:37.812Z,9.90
2023-10-21T00:25:40.271Z,9.90
2023-10-21T00:27:42.845Z,10.00
2023-10-21T00:29:48.029Z,9.90
2023-10-21T00:31:50.649Z,10.00
2023-10-21T00:33:53.087Z,10.00
2023-10-21T00:35:55.715Z,10.00
2023-10-21T00:37:59.193Z,10.10
2023-10-21T00:40:01.776Z,10.10
2023-10-21T00:42:05.320Z,10.10
2023-10-21T00:44:08.159Z,10.10
2023-10-21T00:46:17.131Z,10.20
2023-10-21T00:48:19.805Z,10.20
2023-10-21T00:50:22.795Z,10.20
2023-10-21T00:52:26.603Z,10.20
2023-10-21T00:54:33.231Z,10.20
2023-10-21T00:56:36.352Z,10.30
2023-10-21T00:58:39.342Z,10.30
2023-10-21T01:00:41.910Z,10.30
2023-10-21T01:02:48.332Z,10.40
2023-10-21T01:04:51.069Z,10.70
2023-10-21T01:06:56.412Z,10.40
2023-10-21T01:08:58.939Z,10.40
2023-10-21T01:11:01.497Z,10.40
2023-10-21T01:13:04.519Z,10.40
2023-10-21T01:15:09.603Z,10.40
2023-10-21T01:17:12.081Z,10.40
2023-10-21T01:19:17.218Z,10.40
2023-10-21T01:21:19.796Z,10.30
2023-10-21T01:23:24.916Z,10.40
2023-10-21T01:25:28.719Z,10.30
2023-10-21T01:27:31.210Z,10.30
2023-10-21T01:29:33.999Z,10.30
2023-10-21T01:31:36.880Z,10.30
2023-10-21T01:33:39.542Z,10.40
2023-10-21T01:35:42.784Z,10.30
2023-10-21T01:37:46.210Z,10.60
2023-10-21T01:39:52.133Z,10.30
2023-10-21T01:41:54.670Z,10.70
2023-10-21T01:43:57.180Z,10.20
2023-10-21T01:46:04.905Z,10.20
2023-10-21T01:48:10.369Z,10.10
2023-10-21T01:50:13.765Z,10.10
2023-10-21T01:52:16.301Z,10.00
2023-10-21T01:54:18.911Z,10.00
2023-10-21T01:56:24.200Z,10.00
2023-10-21T01:58:26.787Z,10.30
2023-10-21T02:00:30.036Z,10.00
2023-10-21T02:02:32.792Z,10.00
2023-10-21T02:04:35.429Z,9.90
2023-10-21T02:06:37.947Z,9.90
2023-10-21T02:08:41.063Z,9.80
2023-10-21T02:10:44.084Z,9.90
2023-10-21T02:12:49.321Z,10.30
2023-10-21T02:14:51.885Z,9.80
2023-10-21T02:16:55.508Z,9.80
2023-10-21T02:18:58.038Z,9.80
2023-10-21T02:21:00.774Z,9.80
2023-10-21T02:23:04.466Z,9.70
2023-10-21T02:25:13.753Z,9.70
2023-10-21T02:27:17.094Z,9.70
2023-10-21T02:29:22.268Z,9.60
2023-10-21T02:31:24.799Z,9.60
2023-10-21T02:33:30.139Z,9.60
2023-10-21T02:35:34.781Z,9.60
2023-10-21T02:37:37.345Z,9.70
2023-10-21T02:39:42.169Z,9.90
2023-10-21T02:41:46.123Z,9.50
2023-10-21T02:43:49.096Z,9.50
2023-10-21T02:45:54.298Z,9.50
2023-10-21T02:47:57.309Z,9.50
2023-10-21T02:50:00.944Z,9.50
2023-10-21T02:52:03.677Z,9.40
2023-10-21T02:54:06.559Z,9.50
2023-10-21T02:56:09.543Z,9.50
2023-10-21T02:58:12.081Z,9.50
2023-10-21T03:00:19.205Z,9.50
2023-10-21T03:02:24.561Z,9.40
2023-10-21T03:04:27.288Z,9.50
2023-10-21T03:06:30.373Z,9.40
2023-10-21T03:08:32.851Z,9.40
2023-10-21T03:10:37.851Z,9.40
2023-10-21T03:12:43.320Z,10.20
2023-10-21T03:14:47.292Z,9.40
2023-10-21T03:16:50.132Z,9.40
2023-10-21T03:18:55.483Z,9.40
2023-10-21T03:20:58.006Z,9.40
2023-10-21T03:23:01.061Z,9.40
2023-10-21T03:25:06.151Z,9.40
2023-10-21T03:27:09.166Z,9.40
2023-10-21T03:29:14.359Z,9.60
2023-10-21T03:31:17.366Z,9.40
2023-10-21T03:33:20.810Z,9.40
2023-10-21T03:35:26.240Z,9.50
2023-10-21T03:37:28.728Z,9.40
2023-10-21T03:39:31.877Z,9.50
2023-10-21T03:41:34.494Z,9.80
2023-10-21T03:43:38.236Z,9.50
2023-10-21T03:45:40.768Z,9.40
2023-10-21T03:47:43.515Z,9.50
2023-10-21T03:49:46.123Z,9.50
2023-10-21T03:51:51.251Z,10.30
2023-10-21T03:53:54.284Z,9.50
2023-10-21T03:55:56.979Z,9.50
2023-10-21T03:57:59.758Z,9.50
2023-10-21T04:00:02.782Z,9.50
2023-10-21T04:02:14.540Z,9.40
2023-10-21T04:04:17.290Z,10.20
2023-10-21T04:06:20.420Z,9.50
2023-10-21T04:08:26.664Z,9.40
2023-10-21T04:10:29.212Z,9.50
2023-10-21T04:12:31.783Z,9.40
2023-10-21T04:14:34.586Z,9.40
2023-10-21T04:16:37.776Z,9.40
2023-10-21T04:18:40.434Z,8.80
2023-10-21T04:20:44.013Z,9.90
2023-10-21T04:22:46.681Z,9.40
2023-10-21T04:24:51.854Z,9.40
2023-10-21T04:26:56.907Z,9.40
2023-10-21T04:28:59.479Z,9.40
2023-10-21T04:31:04.543Z,9.40
2023-10-21T04:33:07.207Z,9.40
2023-10-21T04:35:10.343Z,9.30
2023-10-21T04:37:12.862Z,9.30
2023-10-21T04:39:17.899Z,9.30
2023-10-21T04:41:23.094Z,9.30
2023-10-21T04:43:25.585Z,9.30
2023-10-21T04:45:28.930Z,9.90
2023-10-21T04:47:31.468Z,9.30
2023-10-21T04:49:34.137Z,9.60
2023-10-21T04:51:36.754Z,9.30
2023-10-21T04:53:39.458Z,9.20
2023-10-21T04:55:41.958Z,9.70
2023-10-21T04:57:47.109Z,9.20
2023-10-21T04:59:49.639Z,9.20
2023-10-21T05:01:52.222Z,9.20
2023-10-21T05:03:58.113Z,9.20
2023-10-21T05:06:00.797Z,9.20
2023-10-21T05:08:03.845Z,9.80
2023-10-21T05:10:07.573Z,9.20
2023-10-21T05:12:11.842Z,9.20
2023-10-21T05:14:16.860Z,9.20
2023-10-21T05:16:19.441Z,9.20
2023-10-21T05:18:22.078Z,9.30
2023-10-21T05:20:24.905Z,9.30
2023-10-21T05:22:27.368Z,9.30
2023-10-21T05:24:29.824Z,9.30
2023-10-21T05:26:32.410Z,9.30
2023-10-21T05:28:34.968Z,9.30
2023-10-21T05:30:42.278Z,9.30
2023-10-21T05:32:44.839Z,9.30
2023-10-21T05:34:47.466Z,9.30
2023-10-21T05:36:50.067Z,9.30
2023-10-21T05:38:52.704Z,9.40
2023-10-21T05:40:56.959Z,9.40
2023-10-21T05:42:59.560Z,9.30
2023-10-21T05:45:02.321Z,9.40
2023-10-21T05:47:10.565Z,9.40
2023-10-21T05:49:13.119Z,9.40
2023-10-21T05:51:15.592Z,9.40
2023-10-21T05:53:18.372Z,9.40
2023-10-21T05:55:21.170Z,9.40
2023-10-21T05:57:23.752Z,9.60
2023-10-21T05:59:26.283Z,9.40
2023-10-21T06:01:28.839Z,9.40
2023-10-21T06:03:35.334Z,9.40
2023-10-21T06:05:38.941Z,9.50
2023-10-21T06:07:44.000Z,9.50
2023-10-21T06:09:46.601Z,9.50
2023-10-21T06:11:49.294Z,9.50
2023-10-21T06:13:51.955Z,9.50
2023-10-21T06:15:54.547Z,9.60
2023-10-21T06:17:57.558Z,9.50
2023-10-21T06:20:04.442Z,9.60
2023-10-21T06:22:07.708Z,9.60
2023-10-21T06:24:13.963Z,9.60
2023-10-21T06:26:16.493Z,9.50
2023-10-21T06:28:19.341Z,9.60
2023-10-21T06:30:22.300Z,9.60
2023-10-21T06:32:24.902Z,9.60
2023-10-21T06:34:27.507Z,9.60
2023-10-21T06:36:32.861Z,9.90
2023-10-21T06:38:35.532Z,10.50
2023-10-21T06:42:43.444Z,10.20
2023-10-21T06:44:46.165Z,9.70
2023-10-21T06:46:48.716Z,9.70
2023-10-21T06:48:52.290Z,9.70
2023-10-21T06:50:54.767Z,9.70
2023-10-21T06:52:59.953Z,9.80
2023-10-21T06:55:02.660Z,9.80
2023-10-21T06:57:05.932Z,9.80
2023-10-21T06:59:08.642Z,9.90
2023-10-21T07:01:11.250Z,9.90
2023-10-21T07:03:14.148Z,9.90
2023-10-21T07:05:20.872Z,9.90
2023-10-21T07:07:23.973Z,9.90
2023-10-21T07:09:31.030Z,10.00
2023-10-21T07:11:33.646Z,10.10
2023-10-21T07:13:36.214Z,10.00
2023-10-21T07:15:38.787Z,10.20
2023-10-21T07:17:41.335Z,10.10
2023-10-21T07:19:44.259Z,10.10
2023-10-21T07:21:46.726Z,10.20
2023-10-21T07:23:49.383Z,10.20
2023-10-21T07:25:55.207Z,10.30
2023-10-21T07:27:57.659Z,10.30
2023-10-21T07:30:00.302Z,10.40
2023-10-21T07:32:02.808Z,10.40
2023-10-21T07:34:05.348Z,10.90
2023-10-21T07:36:08.922Z,10.40
2023-10-21T07:38:11.416Z,10.50
2023-10-21T07:40:14.493Z,10.50
2023-10-21T07:42:25.064Z,10.50
2023-10-21T07:44:29.600Z,10.60
2023-10-21T07:46:32.340Z,10.60
2023-10-21T07:48:35.235Z,11.00
2023-10-21T07:50:39.048Z,10.60
2023-10-21T07:52:42.239Z,10.70
2023-10-21T07:54:45.790Z,10.70
2023-10-21T07:56:50.708Z,10.70
2023-10-21T07:58:56.146Z,10.70
2023-10-21T08:00:58.910Z,10.70
2023-10-21T08:03:01.540Z,10.80
2023-10-21T08:05:04.826Z,10.80
2023-10-21T08:07:07.412Z,10.80
2023-10-21T08:09:15.621Z,11.50
2023-10-21T08:11:18.247Z,11.10
2023-10-21T08:13:22.861Z,10.90
2023-10-21T08:15:30.952Z,11.00
2023-10-21T08:17:33.693Z,11.00
2023-10-21T08:19:36.379Z,11.00
2023-10-21T08:21:39.081Z,11.70
2023-10-21T08:23:42.411Z,11.10
2023-10-21T08:25:44.991Z,11.20
2023-10-21T08:27:47.450Z,11.40
2023-10-21T08:29:50.056Z,11.20
2023-10-21T08:31:55.619Z,11.30
2023-10-21T08:33:58.253Z,11.30
2023-10-21T08:36:00.810Z,11.40
2023-10-21T08:38:03.621Z,11.40
2023-10-21T08:40:11.632Z,11.50
2023-10-21T08:42:14.352Z,11.50
2023-10-21T08:44:19.385Z,11.50
2023-10-21T08:46:23.077Z,11.60
2023-10-21T08:48:29.264Z,11.60
2023-10-21T08:50:37.258Z,11.70
2023-10-21T08:52:42.052Z,11.70
2023-10-21T08:54:47.465Z,11.80
2023-10-21T08:56:50.115Z,12.00
2023-10-21T08:58:52.718Z,12.50
2023-10-21T09:00:55.311Z,12.10
2023-10-21T09:02:57.891Z,12.20
2023-10-21T09:05:10.695Z,12.30
2023-10-21T09:07:13.368Z,12.90
2023-10-21T09:09:24.018Z,12.40
2023-10-21T09:11:28.272Z,12.90
2023-10-21T09:13:31.461Z,12.70
2023-10-21T09:15:37.441Z,12.80
2023-10-21T09:17:41.765Z,13.00
2023-10-21T09:19:44.165Z,13.10
2023-10-21T09:21:49.595Z,13.10
2023-10-21T09:23:52.695Z,13.80
2023-10-21T09:25:55.797Z,14.00
2023-10-21T09:27:58.403Z,13.50
2023-10-21T09:30:01.812Z,13.60
2023-10-21T09:32:05.136Z,13.50
2023-10-21T09:34:07.633Z,13.60
2023-10-21T09:36:22.379Z,13.70
2023-10-21T09:38:28.633Z,13.80
2023-10-21T09:40:31.316Z,13.90
2023-10-21T09:42:35.789Z,14.00
2023-10-21T09:44:39.836Z,14.00
2023-10-21T09:46:44.918Z,14.00
2023-10-21T09:48:49.852Z,14.10
2023-10-21T09:50:55.329Z,14.10
2023-10-21T09:53:12.291Z,14.10
2023-10-21T09:55:19.462Z,14.10
2023-10-21T09:57:23.057Z,14.10
2023-10-21T09:59:26.500Z,14.20
2023-10-21T10:01:29.781Z,14.30
2023-10-21T10:03:36.066Z,14.30
2023-10-21T10:05:39.457Z,14.30
2023-10-21T10:07:43.133Z,14.40
2023-10-21T10:09:50.633Z,14.40
2023-10-21T10:12:00.069Z,14.10
2023-10-21T10:14:03.611Z,14.30
2023-10-21T10:16:24.465Z,14.30
2023-10-21T10:18:30.342Z,14.60
2023-10-21T10:20:45.951Z,14.30
2023-10-21T10:23:03.899Z,14.30
2023-10-21T10:25:11.733Z,14.30
2023-10-21T10:27:17.990Z,14.30
2023-10-21T10:29:26.789Z,14.70
2023-10-21T10:31:30.616Z,14.30
2023-10-21T10:33:33.337Z,14.40
2023-10-21T10:35:44.307Z,14.10
2023-10-21T10:37:52.896Z,14.20
2023-10-21T10:39:56.971Z,14.20
2023-10-21T10:42:12.110Z,14.20
2023-10-21T10:44:19.658Z,14.20
2023-10-21T10:46:31.604Z,13.80
2023-10-21T10:48:37.302Z,14.10
2023-10-21T10:50:41.202Z,14.00
2023-10-21T10:52:44.106Z,14.80
2023-10-21T10:54:51.387Z,14.10
2023-10-21T10:56:59.071Z,14.00
2023-10-21T10:59:02.087Z,14.00
2023-10-21T11:01:09.354Z,14.50
2023-10-21T11:03:12.230Z,14.10
2023-10-21T11:05:21.667Z,14.50
2023-10-21T11:07:24.337Z,14.00
2023-10-21T11:09:33.560Z,14.50
2023-10-21T11:11:50.814Z,14.10
2023-10-21T11:13:58.045Z,14.10
2023-10-21T11:16:02.122Z,14.20
2023-10-21T11:18:08.264Z,14.20
2023-10-21T11:20:14.629Z,14.10
2023-10-21T11:22:23.150Z,14.00
2023-10-21T11:24:33.379Z,14.00
2023-10-21T11:26:36.755Z,14.00
2023-10-21T11:28:46.383Z,14.00
2023-10-21T11:30:54.910Z,13.80
2023-10-21T11:33:13.270Z,13.90
2023-10-21T11:35:16.165Z,13.90
2023-10-21T11:37:20.126Z,14.00
2023-10-21T11:39:23.010Z,14.00
2023-10-21T11:41:28.616Z,14.10
2023-10-21T11:43:36.517Z,14.10
2023-10-21T11:45:48.060Z,14.00
2023-10-21T11:47:57.224Z,14.00
2023-10-21T11:50:04.000Z,14.10
2023-10-21T11:52:12.559Z,14.00
2023-10-21T11:54:33.620Z,14.00
2023-10-21T11:56:56.220Z,14.00
2023-10-21T11:59:17.223Z,14.00
2023-10-21T12:01:40.250Z,13.90
2023-10-21T12:04:08.850Z,13.90
2023-10-21T12:06:37.186Z,13.90
2023-10-21T12:08:59.071Z,14.00
2023-10-21T12:11:20.322Z,14.20
2023-10-21T12:13:41.198Z,14.00
2023-10-21T12:15:56.377Z,13.80
2023-10-21T12:18:18.194Z,13.80
2023-10-21T12:20:23.615Z,13.80
2023-10-21T12:22:47.368Z,13.80
2023-10-21T12:25:08.374Z,14.00
2023-10-21T12:27:29.615Z,13.90
2023-10-21T12:29:32.192Z,13.90
2023-10-21T12:32:07.448Z,13.90
2023-10-21T12:34:29.260Z,13.90
2023-10-21T12:36:35.604Z,14.10
2023-10-21T12:38:42.019Z,14.00
2023-10-21T12:41:04.590Z,14.30
2023-10-21T12:43:17.495Z,14.60
2023-10-21T12:45:20.494Z,14.50
2023-10-21T12:47:23.676Z,14.70
2023-10-21T12:49:28.726Z,14.80
2023-10-21T12:51:31.837Z,14.80
2023-10-21T12:53:34.575Z,15.00
2023-10-21T12:55:42.985Z,14.80
2023-10-21T12:57:46.635Z,14.70
2023-10-21T12:59:49.215Z,14.60
2023-10-21T13:01:51.820Z,14.60
2023-10-21T13:03:54.551Z,14.50
2023-10-21T13:05:57.212Z,14.60
2023-10-21T13:08:02.999Z,14.70
2023-10-21T13:10:06.699Z,14.70
2023-10-21T13:12:16.039Z,14.70
2023-10-21T13:14:19.264Z,14.70
2023-10-21T13:16:21.983Z,14.70
2023-10-21T13:18:24.785Z,14.70
2023-10-21T13:20:27.360Z,14.60
2023-10-21T13:22:29.940Z,14.60
2023-10-21T13:24:32.592Z,14.70
2023-10-21T13:26:35.134Z,14.50
2023-10-21T13:28:40.319Z,14.30
2023-10-21T13:30:44.891Z,14.50
2023-10-21T13:32:50.533Z,14.50
2023-10-21T13:34:53.203Z,14.50
2023-10-21T13:36:58.241Z,14.40
2023-10-21T13:39:09.893Z,14.40
2023-10-21T13:41:13.537Z,14.30
2023-10-21T13:43:18.861Z,14.40
2023-10-21T13:45:27.837Z,14.30
2023-10-21T13:47:30.820Z,14.30
2023-10-21T13:49:42.992Z,14.40
2023-10-21T13:51:46.959Z,14.40
2023-10-21T13:53:49.517Z,14.40
2023-10-21T13:55:52.110Z,15.00
2023-10-21T13:57:55.535Z,14.50
2023-10-21T13:59:58.193Z,14.50
2023-10-21T14:02:10.383Z,14.80
2023-10-21T14:04:15.834Z,14.70
2023-10-21T14:06:21.035Z,14.70
2023-10-21T14:08:27.909Z,14.80
2023-10-21T14:10:31.188Z,14.90
2023-10-21T14:12:33.897Z,15.70
2023-10-21T14:14:36.599Z,15.10
2023-10-21T14:16:39.267Z,15.20
2023-10-21T14:18:46.120Z,15.30
2023-10-21T14:20:53.373Z,15.40
2023-10-21T14:22:56.084Z,15.40
2023-10-21T14:24:58.634Z,15.40
2023-10-21T14:27:01.174Z,15.60
2023-10-21T14:29:03.627Z,15.40
2023-10-21T14:31:07.912Z,15.70
2023-10-21T14:33:12.641Z,15.40
2023-10-21T14:35:17.808Z,15.40
2023-10-21T14:37:20.848Z,15.40
2023-10-21T14:39:24.706Z,15.40
2023-10-21T14:41:27.565Z,15.40
2023-10-21T14:43:30.049Z,15.50
2023-10-21T14:45:33.437Z,15.40
2023-10-21T14:47:37.311Z,15.90
2023-10-21T14:49:40.142Z,15.30
2023-10-21T14:51:45.410Z,15.30
2023-10-21T14:53:49.519Z,15.30
2023-10-21T14:55:54.148Z,15.20
2023-10-21T14:57:58.896Z,15.10
2023-10-21T15:00:01.542Z,15.10
2023-10-21T15:02:05.297Z,15.10
2023-10-21T15:04:08.611Z,14.90
2023-10-21T15:06:11.449Z,14.90
2023-10-21T15:08:21.099Z,15.10
2023-10-21T15:10:24.245Z,14.70
2023-10-21T15:12:26.814Z,15.10
2023-10-21T15:14:42.188Z,14.60
2023-10-21T15:16:48.225Z,14.70
2023-10-21T15:18:52.246Z,14.60
2023-10-21T15:21:03.178Z,14.70
2023-10-21T15:23:05.712Z,14.60
2023-10-21T15:25:11.973Z,14.60
2023-10-21T15:27:14.559Z,14.40
2023-10-21T15:29:17.197Z,14.50
2023-10-21T15:31:19.916Z,14.30
2023-10-21T15:33:22.936Z,14.70
2023-10-21T15:35:26.670Z,14.20
2023-10-21T15:37:29.343Z,14.50
2023-10-21T15:39:32.352Z,14.20
2023-10-21T15:41:37.652Z,14.10
2023-10-21T15:43:42.857Z,14.10
2023-10-21T15:45:45.568Z,14.10
2023-10-21T15:47:48.148Z,14.10
2023-10-21T15:49:50.774Z,14.00
2023-10-21T15:51:53.352Z,14.00
2023-10-21T15:53:55.804Z,13.90
2023-10-21T15:55:58.315Z,14.00
2023-10-21T15:58:04.679Z,13.80
2023-10-21T16:00:17.906Z,13.90
2023-10-21T16:02:20.636Z,13.90
2023-10-21T16:04:23.327Z,13.90
2023-10-21T16:06:27.779Z,14.00
2023-10-21T16:08:30.363Z,13.90
2023-10-21T16:10:32.944Z,13.80
2023-10-21T16:12:35.493Z,13.80
2023-10-21T16:14:41.006Z,14.30
2023-10-21T16:16:43.540Z,13.70
2023-10-21T16:18:46.598Z,13.70
2023-10-21T16:20:49.110Z,13.60
2023-10-21T16:22:51.615Z,13.60
2023-10-21T16:24:54.310Z,13.60
2023-10-21T16:26:56.947Z,13.60
2023-10-21T16:28:59.850Z,13.60
2023-10-21T16:31:05.782Z,13.50
2023-10-21T16:33:08.617Z,13.80
2023-10-21T16:35:11.363Z,13.50
2023-10-21T16:37:13.870Z,13.60
2023-10-21T16:39:16.512Z,13.50
2023-10-21T16:41:19.156Z,13.50
2023-10-21T16:43:22.400Z,14.00
2023-10-21T16:45:25.013Z,13.90
2023-10-21T16:47:30.204Z,13.40
2023-10-21T16:49:32.886Z,13.50
2023-10-21T16:51:35.468Z,13.40
2023-10-21T16:53:38.040Z,13.40
2023-10-21T16:55:40.538Z,13.40
2023-10-21T16:57:43.074Z,13.40
2023-10-21T16:59:46.900Z,13.50
2023-10-21T17:01:49.527Z,13.40
2023-10-21T17:03:56.121Z,13.40
2023-10-21T17:06:01.998Z,13.70
2023-10-21T17:08:06.194Z,13.70
2023-10-21T17:10:11.548Z,13.30
2023-10-21T17:12:14.151Z,13.30
2023-10-21T17:14:16.785Z,13.30
2023-10-21T17:16:19.404Z,13.30
2023-10-21T17:18:23.376Z,13.30
2023-10-21T17:20:28.693Z,13.30
2023-10-21T17:22:31.376Z,13.30
2023-10-21T17:24:37.087Z,13.30
2023-10-21T17:26:39.885Z,13.20
2023-10-21T17:28:42.458Z,13.20
2023-10-21T17:30:45.263Z,13.20
2023-10-21T17:32:48.132Z,13.20
2023-10-21T17:34:50.732Z,13.20
2023-10-21T17:36:58.497Z,13.20
2023-10-21T17:39:01.471Z,13.10
2023-10-21T17:41:05.644Z,13.20
2023-10-21T17:43:08.215Z,13.20
2023-10-21T17:45:11.430Z,13.10
2023-10-21T17:47:13.993Z,13.10
2023-10-21T17:49:16.845Z,13.10
2023-10-21T17:51:19.850Z,13.00
2023-10-21T17:53:25.118Z,13.00
2023-10-21T17:55:27.715Z,13.00
2023-10-21T17:57:33.020Z,13.00
2023-10-21T17:59:35.813Z,12.90
2023-10-21T18:01:39.449Z,12.90
2023-10-21T18:03:42.326Z,12.90
2023-10-21T18:05:45.906Z,12.80
2023-10-21T18:07:48.386Z,12.80
2023-10-21T18:09:55.300Z,12.80
2023-10-21T18:11:58.582Z,12.70
2023-10-21T18:14:01.340Z,12.70
2023-10-21T18:16:04.497Z,12.80
2023-10-21T18:18:07.035Z,12.80
2023-10-21T18:20:11.182Z,12.70
2023-10-21T18:22:13.677Z,12.70
2023-10-21T18:24:16.664Z,12.80
2023-10-21T18:26:21.871Z,12.80
2023-10-21T18:28:24.344Z,12.80
2023-10-21T18:30:26.920Z,12.80
2023-10-21T18:32:29.534Z,12.80
2023-10-21T18:34:32.705Z,12.80
2023-10-21T18:36:35.371Z,12.80
2023-10-21T18:38:40.474Z,13.40
2023-10-21T18:40:44.607Z,12.90
2023-10-21T18:42:49.726Z,13.20
2023-10-21T18:44:52.494Z,12.90
2023-10-21T18:46:55.044Z,13.70
2023-10-21T18:48:57.805Z,13.00
2023-10-21T18:51:00.746Z,12.90
2023-10-21T18:53:04.525Z,12.90
2023-10-21T18:55:08.483Z,13.10
2023-10-21T18:57:11.051Z,12.80
2023-10-21T18:59:16.237Z,13.10
2023-10-21T19:01:19.048Z,12.90
2023-10-21T19:03:22.474Z,12.80
2023-10-21T19:05:26.730Z,12.70
2023-10-21T19:07:29.050Z,12.90
2023-10-21T19:09:31.612Z,12.50
2023-10-21T19:11:34.160Z,12.70
2023-10-21T19:13:37.504Z,12.70
2023-10-21T19:15:42.604Z,12.70
2023-10-21T19:17:45.213Z,12.70
2023-10-21T19:19:51.442Z,12.70
2023-10-21T19:21:54.605Z,12.70
2023-10-21T19:23:59.779Z,13.20
2023-10-21T19:26:02.467Z,12.60
2023-10-21T19:28:05.336Z,12.70
2023-10-21T19:30:09.341Z,12.60
2023-10-21T19:32:14.442Z,12.60
2023-10-21T19:34:17.031Z,12.60
2023-10-21T19:36:19.601Z,12.60
2023-10-21T19:38:22.945Z,12.60
2023-10-21T19:40:25.717Z,12.50
2023-10-21T19:42:28.438Z,12.50
2023-10-21T19:44:31.205Z,12.50
2023-10-21T19:46:34.135Z,12.50
2023-10-21T19:48:39.327Z,12.50
2023-10-21T19:50:43.025Z,12.50
2023-10-21T19:52:47.596Z,12.60
2023-10-21T19:54:52.555Z,12.60
2023-10-21T19:56:55.306Z,12.60
2023-10-21T19:58:57.831Z,12.60
2023-10-21T20:01:07.409Z,12.60
2023-10-21T20:03:10.177Z,12.60
2023-10-21T20:05:18.060Z,12.60
2023-10-21T20:07:23.488Z,12.80
2023-10-21T20:09:26.193Z,12.60
2023-10-21T20:11:28.933Z,12.60
2023-10-21T20:13:31.970Z,12.60
2023-10-21T20:15:34.745Z,12.60
2023-10-21T20:17:37.680Z,12.60
2023-10-21T20:19:40.443Z,12.60
2023-10-21T20:21:45.755Z,12.60
2023-10-21T20:23:48.571Z,12.60
2023-10-21T20:25:51.092Z,12.70
2023-10-21T20:27:53.753Z,12.70
2023-10-21T20:29:56.506Z,12.60
2023-10-21T20:31:59.054Z,12.70
2023-10-21T20:34:01.845Z,12.70
2023-10-21T20:36:06.485Z,12.70
2023-10-21T20:38:11.768Z,12.70
2023-10-21T20:40:14.525Z,12.70
2023-10-21T20:42:17.213Z,12.70
2023-10-21T20:44:20.268Z,12.70
2023-10-21T20:46:23.056Z,12.70
2023-10-21T20:48:26.214Z,12.80
2023-10-21T20:50:28.949Z,13.20
2023-10-21T20:52:34.140Z,13.10
2023-10-21T20:54:39.647Z,12.80
2023-10-21T20:56:42.742Z,12.80
2023-10-21T20:58:45.478Z,12.80
2023-10-21T21:00:48.354Z,12.80
2023-10-21T21:02:51.535Z,12.80
2023-10-21T21:04:54.359Z,12.80
2023-10-21T21:06:58.126Z,12.70
2023-10-21T21:09:04.614Z,12.80
2023-10-21T21:11:10.045Z,13.00
2023-10-21T21:13:16.117Z,12.80
2023-10-21T21:15:19.144Z,12.80
2023-10-21T21:17:22.729Z,13.30
2023-10-21T21:19:28.526Z,12.80
2023-10-21T21:21:31.478Z,12.80
2023-10-21T21:23:34.305Z,12.80
2023-10-21T21:25:37.839Z,12.80
2023-10-21T21:27:43.226Z,12.80
2023-10-21T21:29:46.232Z,12.90
2023-10-21T21:31:48.899Z,12.80
2023-10-21T21:33:52.876Z,12.80
2023-10-21T21:35:59.365Z,12.80
2023-10-21T21:38:03.926Z,12.80
2023-10-21T21:40:10.463Z,13.00
2023-10-21T21:42:13.276Z,12.90
2023-10-21T21:44:18.555Z,13.30
2023-10-21T21:46:21.863Z,12.90
2023-10-21T21:48:25.094Z,12.90
2023-10-21T21:50:27.851Z,12.90
2023-10-21T21:52:30.559Z,12.90
2023-10-21T21:54:35.423Z,13.50
2023-10-21T21:56:38.011Z,12.80
2023-10-21T21:58:41.143Z,12.80
2023-10-21T22:00:49.793Z,12.80
2023-10-21T22:02:52.447Z,12.80
2023-10-21T22:04:55.204Z,13.10
2023-10-21T22:07:01.477Z,12.80
2023-10-21T22:09:04.801Z,12.80
2023-10-21T22:11:07.358Z,12.70
2023-10-21T22:13:10.867Z,12.70
2023-10-21T22:15:13.721Z,12.70
2023-10-21T22:17:19.348Z,12.70
2023-10-21T22:19:22.043Z,12.70
2023-10-21T22:21:24.551Z,12.70
2023-10-21T22:23:29.399Z,12.70
2023-10-21T22:25:41.011Z,12.70
2023-10-21T22:27:49.370Z,12.70
2023-10-21T22:29:51.958Z,12.70
2023-10-21T22:31:55.745Z,12.70
2023-10-21T22:34:01.109Z,12.70
2023-10-21T22:36:05.873Z,12.60
2023-10-21T22:38:08.878Z,12.60
2023-10-21T22:40:17.281Z,12.60
2023-10-21T22:42:19.837Z,12.60
2023-10-21T22:44:22.363Z,12.60
2023-10-21T22:46:25.068Z,12.60
2023-10-21T22:48:28.703Z,12.70
2023-10-21T22:50:34.085Z,12.60
2023-10-21T22:52:37.052Z,12.50
2023-10-21T22:54:39.588Z,12.70
2023-10-21T22:56:42.146Z,12.50
2023-10-21T22:58:44.749Z,12.50
2023-10-21T23:00:47.298Z,12.50
2023-10-21T23:02:50.755Z,12.50
2023-10-21T23:04:58.022Z,12.50
2023-10-21T23:07:04.481Z,12.50
2023-10-21T23:09:24.058Z,12.50
2023-10-21T23:11:26.640Z,12.50
2023-10-21T23:13:29.229Z,12.50
2023-10-21T23:15:41.856Z,12.50
2023-10-21T23:17:45.656Z,12.70
2023-10-21T23:19:48.388Z,12.50
2023-10-21T23:21:51.784Z,12.90
2023-10-21T23:23:56.946Z,12.40
2023-10-21T23:26:02.081Z,12.40
2023-10-21T23:28:05.183Z,12.50
2023-10-21T23:30:12.715Z,12.40
2023-10-21T23:32:15.276Z,12.40
2023-10-21T23:34:17.887Z,12.40
2023-10-21T23:36:22.619Z,12.40
2023-10-21T23:38:25.224Z,12.90
2023-10-21T23:40:30.885Z,12.40
2023-10-21T23:42:35.680Z,12.40
2023-10-21T23:44:38.376Z,12.40
2023-10-21T23:46:41.561Z,12.40
2023-10-21T23:48:44.901Z,12.30
2023-10-21T23:50:47.452Z,12.40
2023-10-21T23:52:50.052Z,12.40
2023-10-21T23:54:53.031Z,12.50
2023-10-21T23:56:58.218Z,12.40
2023-10-21T23:59:01.900Z,12.50
